sensor_id;sensor_type;location;lat;lon;timestamp;P1;durP1;ratioP1;P2;durP2;ratioP2
8060;SDS011;4073;42.626;25.386;2023-07-20T00:01:45;6.23;;;3.97;;
8060;SDS011;4073;42.626;25.386;2023-07-20T00:04:11;8.30;;;3.43;;
8060;SDS011;4073;42.626;25.386;2023-07-20T00:06:36;8.90;;;3.70;;
8060;SDS011;4073;42.626;25.386;2023-07-20T00:09:05;10.03;;;3.53;;
8060;SDS011;4073;42.626;25.386;2023-07-20T00:11:32;9.60;;;3.20;;
8060;SDS011;4073;42.626;25.386;2023-07-20T00:14:01;11.27;;;3.40;;
8060;SDS011;4073;42.626;25.386;2023-07-20T00:16:27;5.53;;;3.40;;
8060;SDS011;4073;42.626;25.386;2023-07-20T00:18:52;13.90;;;3.70;;
8060;SDS011;4073;42.626;25.386;2023-07-20T00:21:18;8.73;;;3.43;;
8060;SDS011;4073;42.626;25.386;2023-07-20T00:23:43;5.83;;;2.90;;
8060;SDS011;4073;42.626;25.386;2023-07-20T00:26:08;5.97;;;3.43;;
8060;SDS011;4073;42.626;25.386;2023-07-20T00:28:34;7.63;;;3.20;;
8060;SDS011;4073;42.626;25.386;2023-07-20T00:30:59;9.83;;;3.40;;
8060;SDS011;4073;42.626;25.386;2023-07-20T00:33:25;8.50;;;4.07;;
8060;SDS011;4073;42.626;25.386;2023-07-20T00:35:51;4.77;;;2.93;;
8060;SDS011;4073;42.626;25.386;2023-07-20T00:38:16;9.17;;;3.27;;
8060;SDS011;4073;42.626;25.386;2023-07-20T00:40:42;8.20;;;3.70;;
8060;SDS011;4073;42.626;25.386;2023-07-20T00:43:07;5.83;;;3.00;;
8060;SDS011;4073;42.626;25.386;2023-07-20T00:45:33;7.27;;;3.70;;
8060;SDS011;4073;42.626;25.386;2023-07-20T00:48:00;5.70;;;3.50;;
8060;SDS011;4073;42.626;25.386;2023-07-20T00:50:27;5.10;;;3.13;;
8060;SDS011;4073;42.626;25.386;2023-07-20T00:52:57;8.27;;;3.80;;
8060;SDS011;4073;42.626;25.386;2023-07-20T00:55:23;7.93;;;3.17;;
8060;SDS011;4073;42.626;25.386;2023-07-20T00:57:50;13.47;;;3.63;;
8060;SDS011;4073;42.626;25.386;2023-07-20T01:00:16;7.10;;;2.90;;
8060;SDS011;4073;42.626;25.386;2023-07-20T01:02:42;7.70;;;3.90;;
8060;SDS011;4073;42.626;25.386;2023-07-20T01:05:07;10.20;;;3.73;;
8060;SDS011;4073;42.626;25.386;2023-07-20T01:07:42;6.47;;;3.07;;
8060;SDS011;4073;42.626;25.386;2023-07-20T01:12:56;9.17;;;3.93;;
8060;SDS011;4073;42.626;25.386;2023-07-20T01:15:22;7.93;;;4.10;;
8060;SDS011;4073;42.626;25.386;2023-07-20T01:17:48;3.70;;;3.30;;
8060;SDS011;4073;42.626;25.386;2023-07-20T01:20:14;9.57;;;4.03;;
8060;SDS011;4073;42.626;25.386;2023-07-20T01:30:52;7.27;;;3.83;;
8060;SDS011;4073;42.626;25.386;2023-07-20T01:33:35;6.70;;;3.50;;
8060;SDS011;4073;42.626;25.386;2023-07-20T01:36:01;8.40;;;3.97;;
8060;SDS011;4073;42.626;25.386;2023-07-20T01:38:28;10.53;;;4.63;;
8060;SDS011;4073;42.626;25.386;2023-07-20T01:40:54;9.23;;;4.47;;
8060;SDS011;4073;42.626;25.386;2023-07-20T01:43:20;11.57;;;4.27;;
8060;SDS011;4073;42.626;25.386;2023-07-20T01:45:46;10.53;;;4.30;;
8060;SDS011;4073;42.626;25.386;2023-07-20T01:48:12;12.20;;;4.47;;
8060;SDS011;4073;42.626;25.386;2023-07-20T01:50:37;6.53;;;4.33;;
8060;SDS011;4073;42.626;25.386;2023-07-20T01:53:03;9.40;;;3.90;;
8060;SDS011;4073;42.626;25.386;2023-07-20T01:55:28;13.23;;;4.70;;
8060;SDS011;4073;42.626;25.386;2023-07-20T01:57:54;11.57;;;5.00;;
8060;SDS011;4073;42.626;25.386;2023-07-20T02:00:20;8.00;;;3.90;;
8060;SDS011;4073;42.626;25.386;2023-07-20T02:02:49;8.80;;;4.03;;
8060;SDS011;4073;42.626;25.386;2023-07-20T02:05:14;9.20;;;5.03;;
8060;SDS011;4073;42.626;25.386;2023-07-20T02:07:40;15.90;;;5.27;;
8060;SDS011;4073;42.626;25.386;2023-07-20T02:10:06;8.43;;;5.60;;
8060;SDS011;4073;42.626;25.386;2023-07-20T02:12:31;6.70;;;4.57;;
8060;SDS011;4073;42.626;25.386;2023-07-20T02:14:57;9.70;;;4.87;;
8060;SDS011;4073;42.626;25.386;2023-07-20T02:17:22;7.23;;;4.63;;
8060;SDS011;4073;42.626;25.386;2023-07-20T02:19:50;6.67;;;4.60;;
8060;SDS011;4073;42.626;25.386;2023-07-20T02:22:20;12.70;;;4.90;;
8060;SDS011;4073;42.626;25.386;2023-07-20T02:24:46;7.67;;;3.87;;
8060;SDS011;4073;42.626;25.386;2023-07-20T02:27:11;8.17;;;4.70;;
8060;SDS011;4073;42.626;25.386;2023-07-20T02:29:37;11.10;;;4.23;;
8060;SDS011;4073;42.626;25.386;2023-07-20T02:32:03;11.30;;;4.13;;
8060;SDS011;4073;42.626;25.386;2023-07-20T02:34:28;8.10;;;4.33;;
8060;SDS011;4073;42.626;25.386;2023-07-20T02:36:54;7.07;;;5.10;;
8060;SDS011;4073;42.626;25.386;2023-07-20T02:39:23;10.77;;;4.80;;
8060;SDS011;4073;42.626;25.386;2023-07-20T02:41:48;8.07;;;4.83;;
8060;SDS011;4073;42.626;25.386;2023-07-20T02:44:14;6.33;;;4.73;;
8060;SDS011;4073;42.626;25.386;2023-07-20T02:46:40;8.17;;;5.20;;
8060;SDS011;4073;42.626;25.386;2023-07-20T02:49:06;8.50;;;5.27;;
8060;SDS011;4073;42.626;25.386;2023-07-20T02:51:31;10.10;;;5.60;;
8060;SDS011;4073;42.626;25.386;2023-07-20T02:53:57;6.37;;;5.63;;
8060;SDS011;4073;42.626;25.386;2023-07-20T02:56:22;12.07;;;6.10;;
8060;SDS011;4073;42.626;25.386;2023-07-20T02:58:48;7.83;;;5.77;;
8060;SDS011;4073;42.626;25.386;2023-07-20T03:01:13;7.20;;;5.10;;
8060;SDS011;4073;42.626;25.386;2023-07-20T03:03:40;8.00;;;4.80;;
8060;SDS011;4073;42.626;25.386;2023-07-20T03:06:10;6.10;;;4.70;;
8060;SDS011;4073;42.626;25.386;2023-07-20T03:08:36;9.97;;;4.67;;
8060;SDS011;4073;42.626;25.386;2023-07-20T03:11:02;10.27;;;5.73;;
8060;SDS011;4073;42.626;25.386;2023-07-20T03:13:27;11.87;;;5.83;;
8060;SDS011;4073;42.626;25.386;2023-07-20T03:15:53;8.60;;;5.80;;
8060;SDS011;4073;42.626;25.386;2023-07-20T03:18:18;10.70;;;6.07;;
8060;SDS011;4073;42.626;25.386;2023-07-20T03:20:44;12.00;;;6.50;;
8060;SDS011;4073;42.626;25.386;2023-07-20T03:23:10;8.73;;;5.80;;
8060;SDS011;4073;42.626;25.386;2023-07-20T03:25:35;10.50;;;6.73;;
8060;SDS011;4073;42.626;25.386;2023-07-20T03:28:02;10.73;;;7.03;;
8060;SDS011;4073;42.626;25.386;2023-07-20T03:30:28;14.70;;;7.20;;
8060;SDS011;4073;42.626;25.386;2023-07-20T03:32:53;10.53;;;7.87;;
8060;SDS011;4073;42.626;25.386;2023-07-20T03:35:19;10.67;;;7.57;;
8060;SDS011;4073;42.626;25.386;2023-07-20T03:37:44;12.20;;;7.83;;
8060;SDS011;4073;42.626;25.386;2023-07-20T03:40:10;14.17;;;8.03;;
8060;SDS011;4073;42.626;25.386;2023-07-20T03:42:35;10.60;;;7.23;;
8060;SDS011;4073;42.626;25.386;2023-07-20T03:45:01;8.87;;;6.63;;
8060;SDS011;4073;42.626;25.386;2023-07-20T03:47:28;10.60;;;6.67;;
8060;SDS011;4073;42.626;25.386;2023-07-20T03:49:53;11.57;;;7.00;;
8060;SDS011;4073;42.626;25.386;2023-07-20T03:52:19;8.73;;;6.47;;
8060;SDS011;4073;42.626;25.386;2023-07-20T03:54:44;14.10;;;7.10;;
8060;SDS011;4073;42.626;25.386;2023-07-20T03:57:10;7.97;;;6.10;;
8060;SDS011;4073;42.626;25.386;2023-07-20T03:59:36;9.63;;;6.73;;
8060;SDS011;4073;42.626;25.386;2023-07-20T04:02:03;9.97;;;6.43;;
8060;SDS011;4073;42.626;25.386;2023-07-20T04:04:30;9.27;;;6.23;;
8060;SDS011;4073;42.626;25.386;2023-07-20T04:06:55;8.23;;;5.70;;
8060;SDS011;4073;42.626;25.386;2023-07-20T04:09:21;9.40;;;6.57;;
8060;SDS011;4073;42.626;25.386;2023-07-20T04:11:46;7.20;;;6.23;;
8060;SDS011;4073;42.626;25.386;2023-07-20T04:14:11;9.90;;;5.03;;
8060;SDS011;4073;42.626;25.386;2023-07-20T04:16:37;7.47;;;5.50;;
8060;SDS011;4073;42.626;25.386;2023-07-20T04:19:02;11.93;;;6.40;;
8060;SDS011;4073;42.626;25.386;2023-07-20T04:21:28;6.73;;;6.00;;
8060;SDS011;4073;42.626;25.386;2023-07-20T04:23:53;10.17;;;5.70;;
8060;SDS011;4073;42.626;25.386;2023-07-20T04:26:19;7.70;;;5.07;;
8060;SDS011;4073;42.626;25.386;2023-07-20T04:28:44;6.27;;;5.33;;
8060;SDS011;4073;42.626;25.386;2023-07-20T04:31:13;7.73;;;5.73;;
8060;SDS011;4073;42.626;25.386;2023-07-20T04:33:39;11.87;;;5.63;;
8060;SDS011;4073;42.626;25.386;2023-07-20T04:36:05;8.47;;;6.13;;
8060;SDS011;4073;42.626;25.386;2023-07-20T04:38:31;8.67;;;6.60;;
8060;SDS011;4073;42.626;25.386;2023-07-20T04:40:56;8.00;;;5.40;;
8060;SDS011;4073;42.626;25.386;2023-07-20T04:43:22;9.97;;;5.73;;
8060;SDS011;4073;42.626;25.386;2023-07-20T04:45:47;9.03;;;6.40;;
8060;SDS011;4073;42.626;25.386;2023-07-20T04:48:14;10.00;;;6.13;;
8060;SDS011;4073;42.626;25.386;2023-07-20T04:50:41;10.50;;;6.40;;
8060;SDS011;4073;42.626;25.386;2023-07-20T04:53:11;7.63;;;5.87;;
8060;SDS011;4073;42.626;25.386;2023-07-20T04:55:38;9.90;;;6.13;;
8060;SDS011;4073;42.626;25.386;2023-07-20T04:58:04;10.13;;;7.50;;
8060;SDS011;4073;42.626;25.386;2023-07-20T05:00:30;12.17;;;6.80;;
8060;SDS011;4073;42.626;25.386;2023-07-20T05:02:56;9.30;;;6.83;;
8060;SDS011;4073;42.626;25.386;2023-07-20T05:05:21;9.80;;;5.73;;
8060;SDS011;4073;42.626;25.386;2023-07-20T05:07:47;12.73;;;6.60;;
8060;SDS011;4073;42.626;25.386;2023-07-20T05:10:13;11.30;;;6.47;;
8060;SDS011;4073;42.626;25.386;2023-07-20T05:12:38;8.93;;;6.07;;
8060;SDS011;4073;42.626;25.386;2023-07-20T05:15:04;9.53;;;5.93;;
8060;SDS011;4073;42.626;25.386;2023-07-20T05:17:30;9.47;;;6.03;;
8060;SDS011;4073;42.626;25.386;2023-07-20T05:19:55;10.77;;;5.97;;
8060;SDS011;4073;42.626;25.386;2023-07-20T05:22:21;8.30;;;6.13;;
8060;SDS011;4073;42.626;25.386;2023-07-20T05:24:46;11.50;;;6.00;;
8060;SDS011;4073;42.626;25.386;2023-07-20T05:27:12;11.73;;;6.17;;
8060;SDS011;4073;42.626;25.386;2023-07-20T05:29:37;10.33;;;6.30;;
8060;SDS011;4073;42.626;25.386;2023-07-20T05:32:03;16.50;;;6.30;;
8060;SDS011;4073;42.626;25.386;2023-07-20T05:34:28;8.77;;;5.70;;
8060;SDS011;4073;42.626;25.386;2023-07-20T05:37:09;7.73;;;5.87;;
8060;SDS011;4073;42.626;25.386;2023-07-20T05:39:35;10.17;;;6.50;;
8060;SDS011;4073;42.626;25.386;2023-07-20T05:42:00;7.93;;;5.90;;
8060;SDS011;4073;42.626;25.386;2023-07-20T05:44:26;8.73;;;5.97;;
8060;SDS011;4073;42.626;25.386;2023-07-20T05:46:51;8.87;;;5.33;;
8060;SDS011;4073;42.626;25.386;2023-07-20T05:49:17;12.83;;;6.60;;
8060;SDS011;4073;42.626;25.386;2023-07-20T05:51:42;10.83;;;6.87;;
8060;SDS011;4073;42.626;25.386;2023-07-20T05:54:08;7.03;;;6.33;;
8060;SDS011;4073;42.626;25.386;2023-07-20T05:56:33;7.10;;;6.13;;
8060;SDS011;4073;42.626;25.386;2023-07-20T05:58:59;10.03;;;6.07;;
8060;SDS011;4073;42.626;25.386;2023-07-20T06:01:24;10.17;;;7.00;;
8060;SDS011;4073;42.626;25.386;2023-07-20T06:03:52;10.23;;;5.90;;
8060;SDS011;4073;42.626;25.386;2023-07-20T06:06:18;13.33;;;6.57;;
8060;SDS011;4073;42.626;25.386;2023-07-20T06:08:44;11.30;;;7.00;;
8060;SDS011;4073;42.626;25.386;2023-07-20T06:11:09;9.47;;;7.33;;
8060;SDS011;4073;42.626;25.386;2023-07-20T06:13:35;11.33;;;6.43;;
8060;SDS011;4073;42.626;25.386;2023-07-20T06:16:01;10.53;;;6.57;;
8060;SDS011;4073;42.626;25.386;2023-07-20T06:18:26;7.00;;;5.90;;
8060;SDS011;4073;42.626;25.386;2023-07-20T06:20:52;7.23;;;6.07;;
8060;SDS011;4073;42.626;25.386;2023-07-20T06:23:18;11.60;;;6.77;;
8060;SDS011;4073;42.626;25.386;2023-07-20T06:25:44;16.10;;;7.20;;
8060;SDS011;4073;42.626;25.386;2023-07-20T06:28:10;9.63;;;7.17;;
8060;SDS011;4073;42.626;25.386;2023-07-20T06:30:36;15.57;;;7.43;;
8060;SDS011;4073;42.626;25.386;2023-07-20T06:33:01;13.27;;;7.17;;
8060;SDS011;4073;42.626;25.386;2023-07-20T06:35:27;9.07;;;6.17;;
8060;SDS011;4073;42.626;25.386;2023-07-20T06:37:52;8.80;;;6.33;;
8060;SDS011;4073;42.626;25.386;2023-07-20T06:40:18;12.20;;;6.93;;
8060;SDS011;4073;42.626;25.386;2023-07-20T06:42:43;7.33;;;6.30;;
8060;SDS011;4073;42.626;25.386;2023-07-20T06:45:09;10.60;;;6.03;;
8060;SDS011;4073;42.626;25.386;2023-07-20T06:47:37;10.57;;;6.03;;
8060;SDS011;4073;42.626;25.386;2023-07-20T06:50:06;7.27;;;6.27;;
8060;SDS011;4073;42.626;25.386;2023-07-20T06:52:32;12.93;;;6.67;;
8060;SDS011;4073;42.626;25.386;2023-07-20T06:54:58;12.37;;;6.50;;
8060;SDS011;4073;42.626;25.386;2023-07-20T06:57:24;7.10;;;5.93;;
8060;SDS011;4073;42.626;25.386;2023-07-20T06:59:50;12.50;;;7.00;;
8060;SDS011;4073;42.626;25.386;2023-07-20T07:02:16;10.23;;;6.30;;
8060;SDS011;4073;42.626;25.386;2023-07-20T07:04:41;6.37;;;5.57;;
8060;SDS011;4073;42.626;25.386;2023-07-20T07:07:07;7.97;;;6.07;;
8060;SDS011;4073;42.626;25.386;2023-07-20T07:09:34;7.10;;;6.10;;
8060;SDS011;4073;42.626;25.386;2023-07-20T07:11:59;6.70;;;6.10;;
8060;SDS011;4073;42.626;25.386;2023-07-20T07:14:25;7.43;;;5.70;;
8060;SDS011;4073;42.626;25.386;2023-07-20T07:16:50;10.03;;;6.40;;
8060;SDS011;4073;42.626;25.386;2023-07-20T07:19:16;8.80;;;6.20;;
8060;SDS011;4073;42.626;25.386;2023-07-20T07:21:41;11.90;;;6.40;;
8060;SDS011;4073;42.626;25.386;2023-07-20T07:24:07;9.50;;;6.10;;
8060;SDS011;4073;42.626;25.386;2023-07-20T07:26:32;14.23;;;6.17;;
8060;SDS011;4073;42.626;25.386;2023-07-20T07:28:58;7.80;;;5.60;;
8060;SDS011;4073;42.626;25.386;2023-07-20T07:31:28;6.63;;;5.43;;
8060;SDS011;4073;42.626;25.386;2023-07-20T07:33:55;9.27;;;5.90;;
8060;SDS011;4073;42.626;25.386;2023-07-20T07:36:20;12.07;;;6.00;;
8060;SDS011;4073;42.626;25.386;2023-07-20T07:38:46;7.17;;;5.57;;
8060;SDS011;4073;42.626;25.386;2023-07-20T07:41:11;9.93;;;6.50;;
8060;SDS011;4073;42.626;25.386;2023-07-20T07:43:37;10.80;;;6.00;;
8060;SDS011;4073;42.626;25.386;2023-07-20T07:46:03;7.73;;;5.70;;
8060;SDS011;4073;42.626;25.386;2023-07-20T07:48:29;11.33;;;6.83;;
8060;SDS011;4073;42.626;25.386;2023-07-20T07:50:54;8.50;;;5.93;;
8060;SDS011;4073;42.626;25.386;2023-07-20T07:53:20;8.93;;;6.20;;
8060;SDS011;4073;42.626;25.386;2023-07-20T07:55:49;6.90;;;6.20;;
8060;SDS011;4073;42.626;25.386;2023-07-20T07:58:14;8.90;;;6.33;;
8060;SDS011;4073;42.626;25.386;2023-07-20T08:00:40;8.47;;;5.67;;
8060;SDS011;4073;42.626;25.386;2023-07-20T08:03:08;8.80;;;5.77;;
8060;SDS011;4073;42.626;25.386;2023-07-20T08:05:34;8.13;;;6.37;;
8060;SDS011;4073;42.626;25.386;2023-07-20T08:08:00;9.53;;;5.93;;
8060;SDS011;4073;42.626;25.386;2023-07-20T08:10:26;10.27;;;6.87;;
8060;SDS011;4073;42.626;25.386;2023-07-20T08:12:52;12.60;;;6.07;;
8060;SDS011;4073;42.626;25.386;2023-07-20T08:15:17;7.57;;;6.00;;
8060;SDS011;4073;42.626;25.386;2023-07-20T08:17:43;7.87;;;6.13;;
8060;SDS011;4073;42.626;25.386;2023-07-20T08:20:13;9.87;;;6.33;;
8060;SDS011;4073;42.626;25.386;2023-07-20T08:22:39;11.80;;;6.17;;
8060;SDS011;4073;42.626;25.386;2023-07-20T08:25:05;7.07;;;5.53;;
8060;SDS011;4073;42.626;25.386;2023-07-20T08:27:31;7.30;;;5.63;;
8060;SDS011;4073;42.626;25.386;2023-07-20T08:29:57;11.43;;;7.67;;
8060;SDS011;4073;42.626;25.386;2023-07-20T08:32:22;7.87;;;6.60;;
8060;SDS011;4073;42.626;25.386;2023-07-20T08:34:48;9.60;;;6.03;;
8060;SDS011;4073;42.626;25.386;2023-07-20T08:37:14;7.73;;;5.90;;
8060;SDS011;4073;42.626;25.386;2023-07-20T08:39:40;16.93;;;6.57;;
8060;SDS011;4073;42.626;25.386;2023-07-20T08:42:05;10.50;;;5.90;;
8060;SDS011;4073;42.626;25.386;2023-07-20T08:44:35;9.23;;;6.47;;
8060;SDS011;4073;42.626;25.386;2023-07-20T08:47:02;9.00;;;6.50;;
8060;SDS011;4073;42.626;25.386;2023-07-20T08:49:28;6.33;;;5.60;;
8060;SDS011;4073;42.626;25.386;2023-07-20T08:51:56;6.40;;;5.80;;
8060;SDS011;4073;42.626;25.386;2023-07-20T08:54:22;6.70;;;5.80;;
8060;SDS011;4073;42.626;25.386;2023-07-20T08:56:49;6.43;;;5.63;;
8060;SDS011;4073;42.626;25.386;2023-07-20T08:59:16;8.80;;;6.57;;
8060;SDS011;4073;42.626;25.386;2023-07-20T09:01:43;8.03;;;6.57;;
8060;SDS011;4073;42.626;25.386;2023-07-20T09:04:09;8.17;;;6.37;;
8060;SDS011;4073;42.626;25.386;2023-07-20T09:06:36;10.90;;;6.57;;
8060;SDS011;4073;42.626;25.386;2023-07-20T09:09:01;9.47;;;6.70;;
8060;SDS011;4073;42.626;25.386;2023-07-20T09:11:27;6.90;;;5.97;;
8060;SDS011;4073;42.626;25.386;2023-07-20T09:14:05;8.63;;;6.00;;
8060;SDS011;4073;42.626;25.386;2023-07-20T09:16:32;11.40;;;5.90;;
8060;SDS011;4073;42.626;25.386;2023-07-20T09:18:58;8.97;;;5.63;;
8060;SDS011;4073;42.626;25.386;2023-07-20T09:21:24;9.93;;;5.90;;
8060;SDS011;4073;42.626;25.386;2023-07-20T09:23:55;10.90;;;6.10;;
8060;SDS011;4073;42.626;25.386;2023-07-20T09:26:21;7.23;;;6.20;;
8060;SDS011;4073;42.626;25.386;2023-07-20T09:28:53;8.10;;;5.70;;
8060;SDS011;4073;42.626;25.386;2023-07-20T09:31:21;6.23;;;5.67;;
8060;SDS011;4073;42.626;25.386;2023-07-20T09:33:47;11.13;;;5.90;;
8060;SDS011;4073;42.626;25.386;2023-07-20T09:36:14;7.00;;;5.93;;
8060;SDS011;4073;42.626;25.386;2023-07-20T09:38:41;8.13;;;5.87;;
8060;SDS011;4073;42.626;25.386;2023-07-20T09:41:13;9.00;;;5.90;;
8060;SDS011;4073;42.626;25.386;2023-07-20T09:43:40;9.37;;;5.87;;
8060;SDS011;4073;42.626;25.386;2023-07-20T09:46:06;9.83;;;6.17;;
8060;SDS011;4073;42.626;25.386;2023-07-20T09:48:32;8.83;;;5.40;;
8060;SDS011;4073;42.626;25.386;2023-07-20T09:50:57;8.33;;;6.20;;
8060;SDS011;4073;42.626;25.386;2023-07-20T09:53:24;9.77;;;5.80;;
8060;SDS011;4073;42.626;25.386;2023-07-20T09:55:50;7.17;;;5.83;;
8060;SDS011;4073;42.626;25.386;2023-07-20T09:58:17;8.77;;;4.40;;
8060;SDS011;4073;42.626;25.386;2023-07-20T10:00:43;4.70;;;4.30;;
8060;SDS011;4073;42.626;25.386;2023-07-20T10:03:13;13.97;;;4.30;;
8060;SDS011;4073;42.626;25.386;2023-07-20T10:05:51;8.07;;;3.87;;
8060;SDS011;4073;42.626;25.386;2023-07-20T10:08:24;5.50;;;3.43;;
8060;SDS011;4073;42.626;25.386;2023-07-20T10:10:50;7.83;;;3.50;;
8060;SDS011;4073;42.626;25.386;2023-07-20T10:13:17;6.33;;;3.43;;
8060;SDS011;4073;42.626;25.386;2023-07-20T10:15:50;7.40;;;3.30;;
8060;SDS011;4073;42.626;25.386;2023-07-20T10:21:19;7.37;;;3.60;;
8060;SDS011;4073;42.626;25.386;2023-07-20T10:23:48;4.67;;;2.80;;
8060;SDS011;4073;42.626;25.386;2023-07-20T10:26:14;9.10;;;3.77;;
8060;SDS011;4073;42.626;25.386;2023-07-20T10:28:40;4.70;;;3.17;;
8060;SDS011;4073;42.626;25.386;2023-07-20T10:31:09;8.70;;;3.47;;
8060;SDS011;4073;42.626;25.386;2023-07-20T10:33:37;8.03;;;4.07;;
8060;SDS011;4073;42.626;25.386;2023-07-20T10:36:04;8.97;;;5.17;;
8060;SDS011;4073;42.626;25.386;2023-07-20T10:38:52;5.33;;;3.47;;
8060;SDS011;4073;42.626;25.386;2023-07-20T10:43:45;5.30;;;3.23;;
8060;SDS011;4073;42.626;25.386;2023-07-20T10:46:12;5.80;;;3.37;;
8060;SDS011;4073;42.626;25.386;2023-07-20T10:51:39;7.37;;;3.93;;
8060;SDS011;4073;42.626;25.386;2023-07-20T10:56:40;4.40;;;3.67;;
8060;SDS011;4073;42.626;25.386;2023-07-20T10:59:20;6.90;;;3.40;;
8060;SDS011;4073;42.626;25.386;2023-07-20T11:02:08;6.33;;;3.03;;
8060;SDS011;4073;42.626;25.386;2023-07-20T11:07:06;4.33;;;3.40;;
8060;SDS011;4073;42.626;25.386;2023-07-20T11:09:38;5.47;;;3.30;;
8060;SDS011;4073;42.626;25.386;2023-07-20T11:14:55;5.33;;;3.57;;
8060;SDS011;4073;42.626;25.386;2023-07-20T11:17:28;4.60;;;3.70;;
8060;SDS011;4073;42.626;25.386;2023-07-20T11:20:02;5.03;;;3.23;;
8060;SDS011;4073;42.626;25.386;2023-07-20T11:22:28;5.10;;;3.60;;
8060;SDS011;4073;42.626;25.386;2023-07-20T11:24:56;4.07;;;3.27;;
8060;SDS011;4073;42.626;25.386;2023-07-20T11:27:22;8.23;;;3.57;;
8060;SDS011;4073;42.626;25.386;2023-07-20T11:29:48;4.67;;;3.77;;
8060;SDS011;4073;42.626;25.386;2023-07-20T11:32:24;7.40;;;4.33;;
8060;SDS011;4073;42.626;25.386;2023-07-20T11:34:50;5.80;;;3.90;;
8060;SDS011;4073;42.626;25.386;2023-07-20T11:37:18;6.00;;;3.47;;
8060;SDS011;4073;42.626;25.386;2023-07-20T11:39:44;7.30;;;4.30;;
8060;SDS011;4073;42.626;25.386;2023-07-20T11:42:09;5.80;;;4.07;;
8060;SDS011;4073;42.626;25.386;2023-07-20T11:44:36;4.53;;;3.70;;
8060;SDS011;4073;42.626;25.386;2023-07-20T11:47:09;7.37;;;3.83;;
8060;SDS011;4073;42.626;25.386;2023-07-20T11:49:40;5.33;;;4.00;;
8060;SDS011;4073;42.626;25.386;2023-07-20T11:52:11;9.60;;;4.70;;
8060;SDS011;4073;42.626;25.386;2023-07-20T11:54:40;5.73;;;4.43;;
8060;SDS011;4073;42.626;25.386;2023-07-20T11:57:06;9.27;;;5.27;;
8060;SDS011;4073;42.626;25.386;2023-07-20T11:59:32;4.93;;;4.03;;
8060;SDS011;4073;42.626;25.386;2023-07-20T12:02:00;6.47;;;4.37;;
8060;SDS011;4073;42.626;25.386;2023-07-20T12:04:28;9.60;;;4.67;;
8060;SDS011;4073;42.626;25.386;2023-07-20T12:06:53;9.00;;;4.90;;
8060;SDS011;4073;42.626;25.386;2023-07-20T12:09:20;7.30;;;4.70;;
8060;SDS011;4073;42.626;25.386;2023-07-20T12:11:48;9.00;;;4.10;;
8060;SDS011;4073;42.626;25.386;2023-07-20T12:14:14;7.27;;;4.50;;
8060;SDS011;4073;42.626;25.386;2023-07-20T12:16:40;8.17;;;4.67;;
8060;SDS011;4073;42.626;25.386;2023-07-20T12:19:06;6.67;;;4.13;;
8060;SDS011;4073;42.626;25.386;2023-07-20T12:21:37;4.63;;;4.27;;
8060;SDS011;4073;42.626;25.386;2023-07-20T12:24:05;6.57;;;4.67;;
8060;SDS011;4073;42.626;25.386;2023-07-20T12:26:31;5.40;;;4.57;;
8060;SDS011;4073;42.626;25.386;2023-07-20T12:28:58;7.67;;;4.43;;
8060;SDS011;4073;42.626;25.386;2023-07-20T12:31:24;5.40;;;4.23;;
8060;SDS011;4073;42.626;25.386;2023-07-20T12:33:50;6.67;;;4.70;;
8060;SDS011;4073;42.626;25.386;2023-07-20T12:36:17;6.90;;;4.77;;
8060;SDS011;4073;42.626;25.386;2023-07-20T12:38:42;5.63;;;4.23;;
8060;SDS011;4073;42.626;25.386;2023-07-20T12:41:09;6.53;;;4.47;;
8060;SDS011;4073;42.626;25.386;2023-07-20T12:43:37;6.00;;;4.33;;
8060;SDS011;4073;42.626;25.386;2023-07-20T12:46:03;9.77;;;4.10;;
8060;SDS011;4073;42.626;25.386;2023-07-20T12:48:28;9.10;;;3.90;;
8060;SDS011;4073;42.626;25.386;2023-07-20T12:50:53;8.03;;;4.50;;
8060;SDS011;4073;42.626;25.386;2023-07-20T12:53:20;6.00;;;4.70;;
8060;SDS011;4073;42.626;25.386;2023-07-20T12:55:45;5.17;;;4.30;;
8060;SDS011;4073;42.626;25.386;2023-07-20T12:58:11;6.93;;;4.70;;
8060;SDS011;4073;42.626;25.386;2023-07-20T13:00:38;6.80;;;5.30;;
8060;SDS011;4073;42.626;25.386;2023-07-20T13:03:03;8.33;;;5.17;;
8060;SDS011;4073;42.626;25.386;2023-07-20T13:05:32;7.10;;;4.83;;
8060;SDS011;4073;42.626;25.386;2023-07-20T13:07:58;8.43;;;4.90;;
8060;SDS011;4073;42.626;25.386;2023-07-20T13:10:23;6.63;;;4.80;;
8060;SDS011;4073;42.626;25.386;2023-07-20T13:12:49;7.97;;;4.97;;
8060;SDS011;4073;42.626;25.386;2023-07-20T13:15:16;11.43;;;4.93;;
8060;SDS011;4073;42.626;25.386;2023-07-20T13:17:42;8.83;;;5.63;;
8060;SDS011;4073;42.626;25.386;2023-07-20T13:20:08;10.10;;;5.73;;
8060;SDS011;4073;42.626;25.386;2023-07-20T13:22:39;8.53;;;5.57;;
8060;SDS011;4073;42.626;25.386;2023-07-20T13:25:05;8.47;;;5.30;;
8060;SDS011;4073;42.626;25.386;2023-07-20T13:27:32;7.37;;;5.20;;
8060;SDS011;4073;42.626;25.386;2023-07-20T13:29:59;10.70;;;5.23;;
8060;SDS011;4073;42.626;25.386;2023-07-20T13:32:25;7.67;;;5.03;;
8060;SDS011;4073;42.626;25.386;2023-07-20T13:34:51;7.30;;;4.70;;
8060;SDS011;4073;42.626;25.386;2023-07-20T13:37:17;6.13;;;5.00;;
8060;SDS011;4073;42.626;25.386;2023-07-20T13:39:42;8.03;;;5.60;;
8060;SDS011;4073;42.626;25.386;2023-07-20T13:42:08;10.70;;;4.80;;
8060;SDS011;4073;42.626;25.386;2023-07-20T13:44:36;6.33;;;4.93;;
8060;SDS011;4073;42.626;25.386;2023-07-20T13:47:02;7.50;;;5.80;;
8060;SDS011;4073;42.626;25.386;2023-07-20T13:49:30;10.67;;;5.23;;
8060;SDS011;4073;42.626;25.386;2023-07-20T13:51:56;11.37;;;5.63;;
8060;SDS011;4073;42.626;25.386;2023-07-20T13:54:22;6.93;;;5.73;;
8060;SDS011;4073;42.626;25.386;2023-07-20T13:56:48;8.50;;;5.23;;
8060;SDS011;4073;42.626;25.386;2023-07-20T13:59:13;8.20;;;5.17;;
8060;SDS011;4073;42.626;25.386;2023-07-20T14:01:39;7.03;;;5.17;;
8060;SDS011;4073;42.626;25.386;2023-07-20T14:04:04;5.73;;;5.00;;
8060;SDS011;4073;42.626;25.386;2023-07-20T14:06:30;6.93;;;5.30;;
8060;SDS011;4073;42.626;25.386;2023-07-20T14:08:56;7.83;;;5.13;;
8060;SDS011;4073;42.626;25.386;2023-07-20T14:11:23;9.00;;;5.57;;
8060;SDS011;4073;42.626;25.386;2023-07-20T14:13:49;10.67;;;5.27;;
8060;SDS011;4073;42.626;25.386;2023-07-20T14:16:16;9.23;;;5.70;;
8060;SDS011;4073;42.626;25.386;2023-07-20T14:18:41;8.23;;;5.20;;
8060;SDS011;4073;42.626;25.386;2023-07-20T14:21:07;10.07;;;5.33;;
8060;SDS011;4073;42.626;25.386;2023-07-20T14:23:33;5.73;;;4.57;;
8060;SDS011;4073;42.626;25.386;2023-07-20T14:25:58;6.07;;;4.87;;
8060;SDS011;4073;42.626;25.386;2023-07-20T14:28:24;11.63;;;5.40;;
8060;SDS011;4073;42.626;25.386;2023-07-20T14:30:50;8.67;;;6.10;;
8060;SDS011;4073;42.626;25.386;2023-07-20T14:33:15;5.93;;;4.90;;
8060;SDS011;4073;42.626;25.386;2023-07-20T14:35:40;5.60;;;4.43;;
8060;SDS011;4073;42.626;25.386;2023-07-20T14:38:06;5.67;;;4.60;;
8060;SDS011;4073;42.626;25.386;2023-07-20T14:40:31;5.83;;;4.00;;
8060;SDS011;4073;42.626;25.386;2023-07-20T14:42:57;8.40;;;4.23;;
8060;SDS011;4073;42.626;25.386;2023-07-20T14:45:25;7.67;;;4.67;;
8060;SDS011;4073;42.626;25.386;2023-07-20T14:47:52;7.23;;;3.70;;
8060;SDS011;4073;42.626;25.386;2023-07-20T14:50:22;4.87;;;3.63;;
8060;SDS011;4073;42.626;25.386;2023-07-20T14:52:47;5.63;;;4.10;;
8060;SDS011;4073;42.626;25.386;2023-07-20T14:55:13;5.43;;;4.07;;
8060;SDS011;4073;42.626;25.386;2023-07-20T14:57:38;5.73;;;3.93;;
8060;SDS011;4073;42.626;25.386;2023-07-20T15:00:04;10.53;;;4.37;;
8060;SDS011;4073;42.626;25.386;2023-07-20T15:02:35;8.20;;;4.20;;
8060;SDS011;4073;42.626;25.386;2023-07-20T15:05:02;6.07;;;3.83;;
8060;SDS011;4073;42.626;25.386;2023-07-20T15:07:28;7.33;;;4.30;;
8060;SDS011;4073;42.626;25.386;2023-07-20T15:09:54;5.00;;;4.13;;
8060;SDS011;4073;42.626;25.386;2023-07-20T15:12:19;5.17;;;4.10;;
8060;SDS011;4073;42.626;25.386;2023-07-20T15:14:45;10.70;;;4.47;;
8060;SDS011;4073;42.626;25.386;2023-07-20T15:17:28;7.33;;;4.03;;
8060;SDS011;4073;42.626;25.386;2023-07-20T15:19:54;5.57;;;4.10;;
8060;SDS011;4073;42.626;25.386;2023-07-20T15:22:19;5.30;;;3.50;;